Terminal Forecast for MSP Airport


000
FTUS43 KMPX 062320
TAFMSP
TAF
KMSP 062320Z 0700/0806 28007KT P6SM SCT250
     FM070400 22006KT P6SM SCT070 BKN100
     FM071200 29012KT P6SM BKN030
     FM071600 31012G20KT P6SM SCT035=

CCFP Forecasts (click for larger image)

 



USA.gov is the U.S. government's official web portal to all federal, state and local government web resources and services.